• vieta
  • image
  • image
  • image
mod_vvisit_countermod_vvisit_countermod_vvisit_countermod_vvisit_countermod_vvisit_countermod_vvisit_counter
mod_vvisit_counterŠiandien272
mod_vvisit_counterVakar408
mod_vvisit_counterŠią savaitę1578
mod_vvisit_counterPraėjusią savaitę4530
mod_vvisit_counterŠį mėnesį18656
mod_vvisit_counterPraėjusį mėnesį20789
mod_vvisit_counterViso704443

Mes turime: 88 svečius, 1 bots online
Jūsų IP: 54.158.238.172
 , 
Šiandien: Lie 27, 2017
Oro uostas / Įmonė

Apie įmonę

 

Savivaldybės įmonė Šiaulių oro uostas.

2003 m. lapkričio mėn. Šiaulių miesto savivaldybės tarybos sprendimu įsteigta Savivaldybės įmonė Šiaulių oro uostas, kuriai LR Vyriausybės nutarimu suteikta teisė aptarnauti civilinį susisiekimą kariniame Šiaulių aerodrome.

Įmonė yra ribotos civilinės atsakomybės viešasis juridinis asmuo.

Įmonės pagrindinė veikla – oro uosto eksploatavimas ir oro transporto paslaugos.

Svarbiausi veiklos uždaviniai – teikti viešąsias keleivių ir krovinių vežimo oro transportu paslaugas.

Įmonėje dirba 21 darbuotojas.


Įmonės struktūra:

 

Šiandien

Ketvirtadienis, 27 Liepa 2017

Orų prognozė

Šiauliai °C
   

Orų prognozė aviacijai

[source: ADDS]
METAR
EYSA 270820Z 22011KT 9999 FEW018 BKN068 20/16 Q1003 BLU NOSIG =
TAF
TAF EYSA 270800Z 2709/2718 20015KT 9999 BKN030 =
SR / SS: 02:29 / 18:39 UTC (EYSA 2017-07-27)

Paieška

Lankytojai

Mes turime 89 svečius online

tic logo lt